Thurmond, North Carolina
Current Conditions -  °F | °C
As of 2:15 AM on Sunday 23 Nov 2014 (Local Time) from KUKF Reporting Station
Overcast Overcast  
Wind Chill: 36°   Ceiling: 4200
Heat Index: 36°   Visibility: 10mi
Dew Point: 27°   Wind: 0mph
Humidity: 70%   Direction: NA
Pressure: 30.32"   Gusts: NA
Location:  36.37°N, 80.93°W
Report Text: KUKF 230715Z AUTO 00000KT 10SM SCT035 OVC042 02/M03 A3032 RMK AO2
Loading
Personal Weather Stations






























Interactive Weather Map New forecast layout! Learn more

10-Day Weather Forecast

Advertisements
Track Severe Weather on mobile